createdAt,value
2019-04-13T00:02:11.378Z,0.85
2019-04-13T00:04:53.259Z,0.83
2019-04-13T00:07:21.298Z,0.81
2019-04-13T00:09:50.201Z,0.82
2019-04-13T00:12:30.428Z,0.83
2019-04-13T00:14:57.664Z,0.84
2019-04-13T00:17:24.740Z,0.76
2019-04-13T00:19:51.840Z,0.73
2019-04-13T00:22:18.991Z,0.70
2019-04-13T00:24:46.268Z,0.70
2019-04-13T00:27:13.638Z,0.63
2019-04-13T00:29:40.691Z,0.63
2019-04-13T00:32:07.746Z,0.64
2019-04-13T00:34:41.275Z,0.64
2019-04-13T00:37:03.821Z,0.66
2019-04-13T00:39:30.967Z,0.61
2019-04-13T00:41:58.250Z,0.58
2019-04-13T00:44:37.534Z,0.53
2019-04-13T00:47:04.756Z,0.51
2019-04-13T00:49:31.818Z,0.46
2019-04-13T00:51:58.889Z,0.41
2019-04-13T00:54:26.179Z,0.34
2019-04-13T00:56:53.260Z,0.27
2019-04-13T00:59:20.362Z,0.26
2019-04-13T01:01:47.423Z,0.24
2019-04-13T01:04:14.506Z,0.20
2019-04-13T01:06:41.604Z,0.16
2019-04-13T01:09:08.717Z,0.19
2019-04-13T01:11:36.014Z,0.27
2019-04-13T01:14:03.198Z,0.34
2019-04-13T01:16:30.269Z,0.38
2019-04-13T01:18:57.337Z,0.41
2019-04-13T01:21:24.409Z,0.45
2019-04-13T01:23:51.509Z,0.45
2019-04-13T01:26:18.941Z,0.40
2019-04-13T01:28:45.989Z,0.37
2019-04-13T01:31:13.329Z,0.40
2019-04-13T01:33:40.726Z,0.44
2019-04-13T01:36:07.772Z,0.45
2019-04-13T01:38:35.089Z,0.47
2019-04-13T01:41:02.633Z,0.47
2019-04-13T01:43:29.981Z,0.46
2019-04-13T01:45:57.319Z,0.44
2019-04-13T01:48:24.404Z,0.44
2019-04-13T01:50:51.446Z,0.42
2019-04-13T01:53:18.493Z,0.41
2019-04-13T01:55:45.632Z,0.41
2019-04-13T01:58:12.674Z,0.41
2019-04-13T02:01:01.190Z,0.40
2019-04-13T02:03:28.787Z,0.37
2019-04-13T02:05:58.908Z,0.36
2019-04-13T02:08:57.701Z,0.34
2019-04-13T02:11:28.029Z,0.31
2019-04-13T02:13:55.096Z,0.28
2019-04-13T02:16:22.185Z,0.27
2019-04-13T02:18:49.235Z,0.24
2019-04-13T02:21:16.340Z,0.22
2019-04-13T02:23:43.454Z,0.21
2019-04-13T02:26:10.534Z,0.20
2019-04-13T02:28:37.626Z,0.20
2019-04-13T02:31:04.714Z,0.19
2019-04-13T02:33:31.832Z,0.18
2019-04-13T02:35:58.898Z,0.17
2019-04-13T02:38:25.998Z,0.15
2019-04-13T02:40:53.093Z,0.13
2019-04-13T02:43:20.297Z,0.08
2019-04-13T02:45:47.545Z,0.08
2019-04-13T02:48:14.666Z,0.09
2019-04-13T02:50:42.091Z,0.08
2019-04-13T02:53:09.131Z,0.06
2019-04-13T02:55:36.173Z,0.05
2019-04-13T02:58:03.239Z,0.02
2019-04-13T03:00:30.369Z,0.01
2019-04-13T03:02:57.399Z,-0.02
2019-04-13T03:05:24.485Z,-0.04
2019-04-13T03:07:51.548Z,-0.04
2019-04-13T03:10:18.581Z,-0.07
2019-04-13T03:12:45.653Z,-0.05
2019-04-13T03:15:13.396Z,-0.05
2019-04-13T03:18:03.037Z,-0.07
2019-04-13T03:20:31.254Z,-0.08
2019-04-13T03:22:58.571Z,-0.15
2019-04-13T03:25:25.653Z,-0.16
2019-04-13T03:27:52.718Z,-0.18
2019-04-13T03:30:24.050Z,-0.19
2019-04-13T03:32:51.123Z,-0.20
2019-04-13T03:35:18.165Z,-0.21
2019-04-13T03:37:45.209Z,-0.20
2019-04-13T03:40:12.479Z,-0.22
2019-04-13T03:42:39.542Z,-0.27
2019-04-13T03:45:07.090Z,-0.29
2019-04-13T03:47:38.058Z,-0.30
2019-04-13T03:50:05.244Z,-0.30
2019-04-13T03:52:32.343Z,-0.30
2019-04-13T03:54:59.459Z,-0.29
2019-04-13T03:57:26.503Z,-0.31
2019-04-13T03:59:53.536Z,-0.31
2019-04-13T04:02:20.632Z,-0.33
2019-04-13T04:04:47.686Z,-0.30
2019-04-13T04:07:14.722Z,-0.32
2019-04-13T04:09:41.787Z,-0.33
2019-04-13T04:12:10.092Z,-0.33
2019-04-13T04:14:37.543Z,-0.32
2019-04-13T04:17:04.560Z,-0.34
2019-04-13T04:19:31.611Z,-0.34
2019-04-13T04:21:58.695Z,-0.34
2019-04-13T04:24:25.746Z,-0.36
2019-04-13T04:26:52.826Z,-0.35
2019-04-13T04:29:19.904Z,-0.36
2019-04-13T04:31:46.933Z,-0.38
2019-04-13T04:34:13.980Z,-0.38
2019-04-13T04:36:41.084Z,-0.41
2019-04-13T04:39:08.120Z,-0.40
2019-04-13T04:41:35.165Z,-0.39
2019-04-13T04:44:02.278Z,-0.39
2019-04-13T04:46:29.664Z,-0.41
2019-04-13T04:48:56.738Z,-0.39
2019-04-13T04:51:23.833Z,-0.38
2019-04-13T04:53:50.869Z,-0.38
2019-04-13T04:56:18.066Z,-0.36
2019-04-13T04:58:45.104Z,-0.35
2019-04-13T05:01:14.954Z,-0.33
2019-04-13T05:03:41.996Z,-0.32
2019-04-13T05:06:09.087Z,-0.31
2019-04-13T05:08:36.137Z,-0.28
2019-04-13T05:11:03.378Z,-0.25
2019-04-13T05:13:30.463Z,-0.25
2019-04-13T05:15:57.523Z,-0.23
2019-04-13T05:18:24.742Z,-0.23
2019-04-13T05:20:51.869Z,-0.21
2019-04-13T05:23:18.898Z,-0.20
2019-04-13T05:25:45.999Z,-0.18
2019-04-13T05:28:13.082Z,-0.17
2019-04-13T05:30:40.349Z,-0.13
2019-04-13T05:33:07.390Z,-0.09
2019-04-13T05:35:34.491Z,-0.07
2019-04-13T05:38:06.130Z,-0.05
2019-04-13T05:40:33.205Z,-0.03
2019-04-13T05:43:00.295Z,-0.01
2019-04-13T05:45:27.340Z,0.04
2019-04-13T05:47:54.391Z,0.06
2019-04-13T05:50:21.491Z,0.08
2019-04-13T05:52:48.608Z,0.14
2019-04-13T05:55:15.732Z,0.21
2019-04-13T05:57:42.815Z,0.26
2019-04-13T06:00:10.523Z,0.29
2019-04-13T06:02:37.624Z,0.34
2019-04-13T06:05:07.582Z,0.40
2019-04-13T06:07:34.758Z,0.44
2019-04-13T06:10:01.814Z,0.47
2019-04-13T06:12:28.908Z,0.56
2019-04-13T06:14:55.967Z,0.62
2019-04-13T06:17:23.002Z,0.67
2019-04-13T06:19:50.103Z,0.73
2019-04-13T06:22:17.148Z,0.78
2019-04-13T06:24:44.169Z,0.86
2019-04-13T06:27:12.084Z,0.87
2019-04-13T06:29:39.236Z,0.92
2019-04-13T06:32:27.342Z,0.93
2019-04-13T06:35:28.935Z,0.95
2019-04-13T06:37:55.987Z,1.04
2019-04-13T06:40:24.627Z,1.09
2019-04-13T06:42:54.485Z,1.13
2019-04-13T06:45:20.692Z,1.24
2019-04-13T06:47:47.767Z,1.25
2019-04-13T06:50:14.854Z,1.30
2019-04-13T06:52:42.085Z,1.39
2019-04-13T06:55:09.483Z,1.47
2019-04-13T06:57:36.595Z,1.57
2019-04-13T07:00:04.328Z,1.66
2019-04-13T07:02:31.372Z,1.73
2019-04-13T07:04:58.479Z,1.83
2019-04-13T07:07:52.350Z,1.83
2019-04-13T07:10:49.301Z,1.93
2019-04-13T07:13:23.384Z,1.96
2019-04-13T07:15:54.032Z,2.05
2019-04-13T07:18:21.112Z,2.09
2019-04-13T07:20:48.828Z,2.16
2019-04-13T07:23:16.310Z,2.28
2019-04-13T07:25:43.346Z,2.36
2019-04-13T07:28:10.415Z,2.40
2019-04-13T07:30:37.478Z,2.49
2019-04-13T07:33:04.565Z,2.61
2019-04-13T07:35:33.980Z,2.72
2019-04-13T07:38:00.569Z,2.86
2019-04-13T07:40:27.641Z,2.92
2019-04-13T07:42:54.756Z,2.98
2019-04-13T07:45:36.205Z,3.09
2019-04-13T07:48:14.531Z,3.20
2019-04-13T07:50:51.449Z,3.29
2019-04-13T07:53:21.238Z,3.33
2019-04-13T07:55:48.306Z,3.41
2019-04-13T07:58:16.815Z,3.42
2019-04-13T08:00:45.844Z,3.50
2019-04-13T08:03:12.987Z,3.51
2019-04-13T08:05:40.217Z,3.58
2019-04-13T08:08:07.479Z,3.64
2019-04-13T08:10:34.820Z,3.71
2019-04-13T08:13:01.899Z,3.79
2019-04-13T08:15:29.058Z,3.89
2019-04-13T08:17:56.139Z,3.92
2019-04-13T08:20:30.603Z,3.96
2019-04-13T08:22:59.079Z,4.07
2019-04-13T08:25:26.424Z,4.23
2019-04-13T08:27:53.630Z,4.22
2019-04-13T08:30:20.672Z,4.31
2019-04-13T08:32:47.741Z,4.38
2019-04-13T08:35:14.951Z,4.51
2019-04-13T08:37:52.860Z,4.57
2019-04-13T08:40:12.238Z,4.64
2019-04-13T08:42:39.371Z,4.75
2019-04-13T08:45:06.644Z,4.78
2019-04-13T08:47:33.707Z,4.83
2019-04-13T08:50:00.873Z,5.00
2019-04-13T08:52:27.961Z,5.10
2019-04-13T08:54:55.016Z,5.15
2019-04-13T08:57:22.100Z,5.13
2019-04-13T08:59:49.202Z,5.33
2019-04-13T09:02:16.358Z,5.50
2019-04-13T09:04:43.450Z,5.68
2019-04-13T09:07:14.938Z,5.79
2019-04-13T09:09:41.332Z,5.95
2019-04-13T09:12:10.770Z,5.91
2019-04-13T09:14:38.176Z,6.07
2019-04-13T09:17:06.585Z,6.07
2019-04-13T09:19:59.484Z,5.89
2019-04-13T09:22:26.964Z,5.82
2019-04-13T09:24:54.131Z,5.83
2019-04-13T09:27:21.223Z,5.93
2019-04-13T09:29:48.287Z,6.15
2019-04-13T09:32:15.359Z,6.28
2019-04-13T09:34:42.706Z,6.55
2019-04-13T09:37:09.861Z,6.85
2019-04-13T09:39:36.967Z,7.00
2019-04-13T09:42:04.095Z,7.11
2019-04-13T09:44:32.343Z,7.18
2019-04-13T09:47:08.804Z,7.03
2019-04-13T09:49:36.014Z,6.83
2019-04-13T09:52:03.088Z,6.68
2019-04-13T09:54:30.283Z,6.55
2019-04-13T09:56:57.377Z,6.53
2019-04-13T09:59:24.462Z,6.83
2019-04-13T10:01:51.569Z,7.01
2019-04-13T10:04:18.696Z,6.87
2019-04-13T10:06:45.792Z,6.71
2019-04-13T10:09:12.951Z,6.55
2019-04-13T10:12:02.379Z,6.35
2019-04-13T10:14:50.922Z,6.28
2019-04-13T10:17:34.975Z,6.47
2019-04-13T10:20:02.078Z,6.53
2019-04-13T10:22:29.345Z,6.55
2019-04-13T10:24:56.417Z,6.73
2019-04-13T10:27:23.496Z,6.89
2019-04-13T10:29:50.577Z,7.01
2019-04-13T10:32:21.367Z,7.25
2019-04-13T10:34:48.477Z,7.25
2019-04-13T10:37:21.635Z,7.20
2019-04-13T10:39:48.693Z,7.42
2019-04-13T10:42:15.795Z,7.58
2019-04-13T10:44:46.655Z,7.78
2019-04-13T10:47:40.280Z,7.89
2019-04-13T10:50:34.247Z,7.93
2019-04-13T10:53:01.342Z,7.69
2019-04-13T10:55:28.586Z,7.76
2019-04-13T10:57:56.358Z,7.84
2019-04-13T11:00:23.462Z,7.64
2019-04-13T11:02:50.559Z,7.48
2019-04-13T11:05:17.723Z,7.40
2019-04-13T11:07:45.074Z,7.27
2019-04-13T11:10:12.129Z,7.24
2019-04-13T11:12:39.225Z,7.41
2019-04-13T11:15:06.687Z,7.53
2019-04-13T11:17:33.767Z,7.77
2019-04-13T11:20:01.034Z,7.98
2019-04-13T11:22:28.082Z,8.07
2019-04-13T11:24:55.181Z,7.99
2019-04-13T11:27:22.292Z,7.90
2019-04-13T11:29:49.380Z,8.10
2019-04-13T11:32:16.426Z,8.16
2019-04-13T11:34:43.575Z,8.34
2019-04-13T11:37:10.696Z,8.52
2019-04-13T11:39:41.511Z,8.30
2019-04-13T11:42:29.459Z,7.75
2019-04-13T11:45:14.695Z,7.11
2019-04-13T11:47:59.433Z,6.41
2019-04-13T11:50:35.501Z,6.10
2019-04-13T11:53:02.595Z,6.20
2019-04-13T11:55:33.888Z,6.30
2019-04-13T11:57:58.679Z,6.48
2019-04-13T12:00:50.643Z,6.80
2019-04-13T12:03:35.775Z,7.30
2019-04-13T12:06:06.357Z,7.98
2019-04-13T12:08:42.591Z,8.59
2019-04-13T12:11:40.099Z,9.10
2019-04-13T12:14:23.232Z,9.60
2019-04-13T12:17:19.605Z,9.90
2019-04-13T12:19:50.980Z,9.60
2019-04-13T12:22:23.497Z,9.61
2019-04-13T12:25:03.201Z,10.05
2019-04-13T12:27:31.299Z,10.80
2019-04-13T12:29:59.664Z,10.86
2019-04-13T12:32:29.289Z,10.55
2019-04-13T12:34:57.546Z,9.89
2019-04-13T12:37:24.598Z,9.36
2019-04-13T12:40:02.924Z,9.01
2019-04-13T12:42:24.926Z,8.57
2019-04-13T12:44:51.960Z,8.41
2019-04-13T12:47:20.088Z,8.19
2019-04-13T12:49:47.214Z,8.47
2019-04-13T12:52:14.357Z,9.71
2019-04-13T12:54:41.370Z,10.79
2019-04-13T12:57:08.499Z,11.73
2019-04-13T12:59:36.641Z,12.12
2019-04-13T13:02:13.102Z,11.83
2019-04-13T13:04:58.384Z,10.74
2019-04-13T13:07:25.819Z,9.91
2019-04-13T13:09:55.726Z,9.16
2019-04-13T13:12:22.798Z,8.71
2019-04-13T13:14:49.891Z,8.52
2019-04-13T13:17:18.387Z,8.27
2019-04-13T13:19:46.244Z,8.42
2019-04-13T13:22:15.729Z,9.05
2019-04-13T13:24:43.297Z,9.36
2019-04-13T13:27:11.912Z,9.38
2019-04-13T13:29:38.966Z,9.70
2019-04-13T13:32:06.224Z,9.59
2019-04-13T13:34:33.293Z,9.39
2019-04-13T13:37:00.360Z,9.36
2019-04-13T13:39:27.525Z,9.50
2019-04-13T13:41:54.595Z,9.97
2019-04-13T13:44:21.671Z,9.79
2019-04-13T13:46:51.254Z,9.38
2019-04-13T13:49:17.755Z,9.08
2019-04-13T13:51:55.527Z,8.89
2019-04-13T13:54:14.351Z,9.06
2019-04-13T13:56:41.549Z,9.49
2019-04-13T13:59:08.605Z,9.94
2019-04-13T14:01:48.427Z,10.48
2019-04-13T14:04:15.520Z,11.26
2019-04-13T14:06:42.600Z,11.08
2019-04-13T14:09:10.330Z,10.54
2019-04-13T14:11:37.598Z,10.22
2019-04-13T14:14:04.664Z,10.21
2019-04-13T14:16:31.739Z,10.16
2019-04-13T14:18:58.793Z,10.07
2019-04-13T14:21:25.896Z,10.36
2019-04-13T14:23:53.020Z,10.60
2019-04-13T14:26:20.090Z,10.12
2019-04-13T14:28:47.250Z,9.70
2019-04-13T14:31:14.378Z,9.14
2019-04-13T14:33:41.478Z,8.73
2019-04-13T14:36:08.546Z,8.40
2019-04-13T14:38:35.619Z,8.08
2019-04-13T14:41:02.938Z,8.09
2019-04-13T14:43:41.964Z,8.28
2019-04-13T14:46:14.346Z,8.68
2019-04-13T14:48:41.408Z,9.11
2019-04-13T14:51:08.535Z,9.44
2019-04-13T14:53:35.600Z,9.65
2019-04-13T14:56:05.054Z,9.99
2019-04-13T14:58:31.799Z,10.15
2019-04-13T15:00:59.013Z,10.31
2019-04-13T15:03:26.144Z,10.52
2019-04-13T15:05:53.376Z,10.52
2019-04-13T15:08:20.448Z,10.61
2019-04-13T15:10:51.950Z,10.34
2019-04-13T15:13:19.067Z,10.22
2019-04-13T15:15:47.636Z,9.87
2019-04-13T15:18:21.037Z,10.12
2019-04-13T15:20:50.658Z,10.49
2019-04-13T15:23:17.722Z,10.55
2019-04-13T15:25:50.904Z,10.47
2019-04-13T15:28:19.120Z,10.79
2019-04-13T15:30:48.363Z,10.84
2019-04-13T15:33:18.282Z,10.38
2019-04-13T15:35:48.330Z,9.77
2019-04-13T15:38:18.145Z,9.51
2019-04-13T15:40:42.897Z,9.24
2019-04-13T15:43:18.772Z,9.21
2019-04-13T15:45:43.882Z,9.12
2019-04-13T15:48:07.915Z,8.98
2019-04-13T15:50:34.958Z,8.80
2019-04-13T15:53:02.015Z,8.62
2019-04-13T15:55:29.467Z,8.80
2019-04-13T15:57:57.679Z,8.69
2019-04-13T16:00:25.291Z,8.61
2019-04-13T16:02:52.379Z,8.55
2019-04-13T16:05:19.863Z,8.29
2019-04-13T16:07:46.963Z,8.11
2019-04-13T16:10:37.584Z,7.61
2019-04-13T16:13:06.860Z,7.29
2019-04-13T16:15:36.078Z,6.99
2019-04-13T16:18:04.593Z,6.64
2019-04-13T16:20:31.817Z,6.42
2019-04-13T16:22:58.902Z,6.37
2019-04-13T16:25:28.844Z,6.35
2019-04-13T16:28:04.735Z,6.31
2019-04-13T16:31:01.106Z,6.34
2019-04-13T16:33:54.193Z,6.35
2019-04-13T16:36:25.353Z,6.40
2019-04-13T16:39:01.790Z,6.48
2019-04-13T16:41:21.640Z,6.68
2019-04-13T16:43:53.885Z,6.90
2019-04-13T16:46:29.037Z,7.09
2019-04-13T16:49:19.560Z,7.18
2019-04-13T16:52:07.066Z,7.13
2019-04-13T16:54:54.553Z,7.14
2019-04-13T16:57:35.707Z,7.18
2019-04-13T17:00:22.212Z,7.22
2019-04-13T17:03:11.917Z,7.26
2019-04-13T17:05:39.833Z,7.31
2019-04-13T17:08:07.712Z,7.32
2019-04-13T17:10:35.715Z,7.29
2019-04-13T17:13:09.686Z,7.28
2019-04-13T17:15:37.704Z,7.16
2019-04-13T17:18:10.015Z,7.06
2019-04-13T17:20:49.914Z,7.04
2019-04-13T17:23:29.400Z,7.03
2019-04-13T17:26:02.970Z,7.05
2019-04-13T17:28:48.934Z,7.05
2019-04-13T17:31:51.394Z,6.96
2019-04-13T17:34:27.898Z,7.03
2019-04-13T17:36:56.370Z,6.99
2019-04-13T17:39:23.665Z,7.03
2019-04-13T17:42:10.403Z,7.00
2019-04-13T17:44:38.136Z,6.87
2019-04-13T17:47:31.222Z,6.37
2019-04-13T17:50:26.769Z,5.97
2019-04-13T17:53:03.593Z,5.80
2019-04-13T17:55:39.821Z,5.57
2019-04-13T17:58:25.364Z,5.42
2019-04-13T18:01:18.892Z,5.26
2019-04-13T18:04:19.021Z,5.12
2019-04-13T18:07:07.265Z,4.93
2019-04-13T18:10:15.191Z,4.76
2019-04-13T18:13:07.785Z,4.59
2019-04-13T18:15:57.747Z,4.45
2019-04-13T18:18:37.531Z,4.27
2019-04-13T18:21:05.609Z,4.11
2019-04-13T18:23:33.922Z,4.02
2019-04-13T18:26:02.554Z,3.93
2019-04-13T18:28:29.800Z,3.82
2019-04-13T18:30:58.008Z,3.71
2019-04-13T18:33:26.144Z,3.64
2019-04-13T18:35:56.447Z,3.56
2019-04-13T18:38:41.962Z,3.48
2019-04-13T18:41:10.186Z,3.43
2019-04-13T18:43:37.318Z,3.38
2019-04-13T18:46:05.426Z,3.29
2019-04-13T18:48:33.851Z,3.20
2019-04-13T18:51:02.231Z,3.13
2019-04-13T18:53:29.903Z,3.06
2019-04-13T18:55:58.142Z,3.01
2019-04-13T18:58:25.245Z,2.99
2019-04-13T19:00:52.956Z,2.93
2019-04-13T19:03:20.042Z,2.88
2019-04-13T19:05:47.166Z,2.86
2019-04-13T19:08:14.516Z,2.77
2019-04-13T19:10:41.742Z,2.73
2019-04-13T19:13:08.914Z,2.65
2019-04-13T19:15:35.983Z,2.62
2019-04-13T19:18:03.241Z,2.58
2019-04-13T19:20:30.357Z,2.54
2019-04-13T19:22:57.387Z,2.51
2019-04-13T19:25:24.473Z,2.49
2019-04-13T19:27:51.597Z,2.43
2019-04-13T19:30:18.713Z,2.41
2019-04-13T19:32:45.947Z,2.40
2019-04-13T19:35:13.069Z,2.40
2019-04-13T19:37:40.199Z,2.35
2019-04-13T19:40:07.381Z,2.32
2019-04-13T19:42:34.456Z,2.35
2019-04-13T19:45:01.567Z,2.36
2019-04-13T19:47:28.703Z,2.36
2019-04-13T19:49:55.908Z,2.39
2019-04-13T19:52:37.458Z,2.41
2019-04-13T19:55:04.898Z,2.42
2019-04-13T19:57:32.039Z,2.42
2019-04-13T19:59:59.517Z,2.43
2019-04-13T20:02:27.230Z,2.44
2019-04-13T20:04:54.290Z,2.46
2019-04-13T20:07:22.574Z,2.47
2019-04-13T20:09:49.787Z,2.48
2019-04-13T20:12:16.876Z,2.47
2019-04-13T20:14:45.818Z,2.47
2019-04-13T20:17:12.941Z,2.51
2019-04-13T20:19:40.018Z,2.55
2019-04-13T20:22:07.119Z,2.60
2019-04-13T20:24:34.715Z,2.58
2019-04-13T20:27:02.305Z,2.56
2019-04-13T20:29:29.655Z,2.52
2019-04-13T20:31:57.070Z,2.49
2019-04-13T20:34:24.863Z,2.46
2019-04-13T20:36:52.799Z,2.43
2019-04-13T20:39:22.269Z,2.41
2019-04-13T20:41:57.402Z,2.43
2019-04-13T20:44:19.512Z,2.43
2019-04-13T20:46:47.445Z,2.44
2019-04-13T20:49:15.047Z,2.47
2019-04-13T20:51:43.050Z,2.51
2019-04-13T20:54:11.531Z,2.53
2019-04-13T20:56:38.727Z,2.53
2019-04-13T20:59:06.207Z,2.47
2019-04-13T21:01:34.355Z,2.43
2019-04-13T21:04:02.281Z,2.40
2019-04-13T21:06:30.472Z,2.34
2019-04-13T21:08:59.225Z,2.28
2019-04-13T21:11:26.597Z,2.21
2019-04-13T21:14:04.947Z,2.14
2019-04-13T21:16:23.571Z,2.07
2019-04-13T21:18:51.500Z,2.00
2019-04-13T21:21:19.344Z,1.94
2019-04-13T21:23:47.351Z,1.89
2019-04-13T21:26:15.216Z,1.80
2019-04-13T21:28:42.960Z,1.74
2019-04-13T21:31:10.741Z,1.65
2019-04-13T21:33:38.615Z,1.60
2019-04-13T21:36:06.678Z,1.57
2019-04-13T21:38:34.535Z,1.53
2019-04-13T21:41:02.205Z,1.47
2019-04-13T21:43:32.578Z,1.43
2019-04-13T21:45:58.406Z,1.41
2019-04-13T21:48:26.266Z,1.38
2019-04-13T21:51:11.875Z,1.38
2019-04-13T21:53:46.440Z,1.40
2019-04-13T21:56:14.401Z,1.40
2019-04-13T21:58:42.356Z,1.40
2019-04-13T22:01:25.670Z,1.37
2019-04-13T22:03:53.376Z,1.38
2019-04-13T22:06:21.310Z,1.37
2019-04-13T22:08:49.158Z,1.36
2019-04-13T22:11:16.997Z,1.34
2019-04-13T22:13:44.640Z,1.29
2019-04-13T22:16:12.248Z,1.24
2019-04-13T22:18:39.331Z,1.21
2019-04-13T22:21:06.903Z,1.18
2019-04-13T22:23:34.639Z,1.15
2019-04-13T22:26:02.508Z,1.14
2019-04-13T22:28:36.557Z,1.13
2019-04-13T22:31:33.082Z,1.10
2019-04-13T22:34:01.248Z,1.09
2019-04-13T22:36:31.154Z,1.02
2019-04-13T22:38:58.761Z,0.97
2019-04-13T22:41:26.692Z,0.91
2019-04-13T22:43:54.448Z,0.85
2019-04-13T22:46:21.640Z,0.84
2019-04-13T22:48:58.161Z,0.85
2019-04-13T22:51:44.912Z,0.88
2019-04-13T22:54:34.363Z,0.86
2019-04-13T22:57:19.534Z,0.88
2019-04-13T22:59:46.635Z,0.88
2019-04-13T23:02:25.911Z,0.92
2019-04-13T23:04:53.694Z,0.90
2019-04-13T23:07:23.081Z,0.88
2019-04-13T23:09:49.931Z,0.86
2019-04-13T23:12:18.016Z,0.87
2019-04-13T23:14:56.958Z,0.85
2019-04-13T23:17:14.116Z,0.86
2019-04-13T23:19:41.436Z,0.92
2019-04-13T23:22:08.559Z,0.97
2019-04-13T23:24:36.413Z,1.03
2019-04-13T23:27:03.589Z,1.11
2019-04-13T23:29:30.664Z,1.15
2019-04-13T23:31:58.675Z,1.21
2019-04-13T23:34:26.824Z,1.26
2019-04-13T23:37:04.027Z,1.33
2019-04-13T23:39:32.192Z,1.37
2019-04-13T23:42:00.526Z,1.43
2019-04-13T23:44:28.851Z,1.49
2019-04-13T23:46:56.875Z,1.55
2019-04-13T23:49:25.199Z,1.59
2019-04-13T23:51:53.578Z,1.64
2019-04-13T23:54:21.724Z,1.66
2019-04-13T23:57:07.422Z,1.67
2019-04-13T23:59:40.059Z,1.66
